Time;durP1;ratioP1;P1;durP2;ratioP2;P2;SDS_P1;SDS_P2;PMS_P1;PMS_P2;Temp;Humidity;BMP_temperature;BMP_pressure;BME280_temperature;BME280_humidity;BME280_pressure;Samples;Min_cycle;Max_cycle;Signal;HPM_P1;HPM_P2
2023/05/25 00:00:05;;;;;;;9.60;7.10;;;;;;;13.99;100.00;100915.81;107475;1244;71723;-72
2023/05/25 00:02:54;;;;;;;10.80;6.70;;;;;;;14.00;100.00;100919.79;107528;1251;70915;-72
2023/05/25 00:05:26;;;;;;;12.80;7.10;;;;;;;14.01;100.00;100920.96;107477;1241;74292;-72
2023/05/25 00:07:55;;;;;;;13.10;7.20;;;;;;;14.01;100.00;100921.13;107551;1242;61109;-72
2023/05/25 00:10:24;;;;;;;12.10;7.60;;;;;;;13.98;100.00;100924.85;107530;1241;61713;-71
2023/05/25 00:12:55;;;;;;;10.30;7.50;;;;;;;13.94;100.00;100921.58;107374;1252;64019;-71
2023/05/25 00:15:24;;;;;;;17.00;8.00;;;;;;;13.92;100.00;100924.83;107393;1244;71479;-72
2023/05/25 00:17:54;;;;;;;9.40;7.10;;;;;;;13.92;100.00;100921.02;107593;1252;60239;-73
2023/05/25 00:20:23;;;;;;;11.90;7.10;;;;;;;13.88;100.00;100917.67;107533;1244;73132;-73
2023/05/25 00:22:54;;;;;;;8.00;6.40;;;;;;;13.80;100.00;100914.52;107564;1243;58903;-73
2023/05/25 00:25:23;;;;;;;13.20;7.30;;;;;;;13.66;100.00;100912.11;107512;1240;61299;-73
2023/05/25 00:27:52;;;;;;;10.50;7.00;;;;;;;13.58;100.00;100917.16;107619;1241;63013;-73
2023/05/25 00:30:21;;;;;;;10.50;7.00;;;;;;;13.50;100.00;100922.33;107402;1241;61669;-73
2023/05/25 00:32:50;;;;;;;11.30;7.30;;;;;;;13.48;100.00;100918.97;107533;1241;60022;-73
2023/05/25 00:35:19;;;;;;;12.30;7.20;;;;;;;13.55;100.00;100920.77;107575;1245;62275;-74
2023/05/25 00:37:49;;;;;;;10.50;6.80;;;;;;;13.56;100.00;100918.02;107649;1242;57377;-73
2023/05/25 00:40:19;;;;;;;10.10;7.10;;;;;;;13.56;100.00;100918.77;107770;1239;60839;-73
2023/05/25 00:42:48;;;;;;;11.70;7.30;;;;;;;13.55;100.00;100922.86;107595;1238;74977;-73
2023/05/25 00:45:16;;;;;;;10.60;6.90;;;;;;;13.56;100.00;100921.58;107586;1238;71996;-73
2023/05/25 00:47:50;;;;;;;12.30;7.30;;;;;;;13.64;100.00;100922.42;107750;1238;70955;-73
2023/05/25 00:50:35;;;;;;;12.60;7.30;;;;;;;13.75;100.00;100921.19;107677;1242;62961;-73
2023/05/25 00:53:10;;;;;;;9.00;6.80;;;;;;;13.94;100.00;100920.34;107581;1238;62984;-73
2023/05/25 00:56:04;;;;;;;11.60;7.40;;;;;;;14.08;100.00;100918.58;107664;1241;60879;-73
2023/05/25 00:58:36;;;;;;;10.00;6.60;;;;;;;14.21;100.00;100914.92;107654;1247;63404;-74
2023/05/25 01:01:10;;;;;;;9.20;6.80;;;;;;;14.32;100.00;100924.31;107556;1252;72138;-75
2023/05/25 01:03:44;;;;;;;14.70;7.20;;;;;;;14.40;100.00;100925.18;107433;1245;60346;-74
2023/05/25 01:06:17;;;;;;;14.20;8.20;;;;;;;14.49;100.00;100921.77;107659;1243;63267;-73
2023/05/25 01:08:59;;;;;;;13.80;7.20;;;;;;;14.51;100.00;100928.45;107854;1242;58977;-77
2023/05/25 01:11:34;;;;;;;11.70;6.50;;;;;;;14.44;100.00;100934.84;107645;1241;59855;-74
2023/05/25 01:14:03;;;;;;;10.60;6.30;;;;;;;14.50;100.00;100931.54;107598;1239;74489;-72
2023/05/25 01:16:36;;;;;;;11.60;7.10;;;;;;;14.42;100.00;100932.42;107530;1242;60737;-73
2023/05/25 01:19:05;;;;;;;10.40;6.60;;;;;;;14.33;100.00;100931.23;107507;1242;59943;-74
2023/05/25 01:21:41;;;;;;;14.80;7.20;;;;;;;14.30;100.00;100933.59;107518;1246;62469;-73
2023/05/25 01:24:39;;;;;;;17.20;7.90;;;;;;;14.26;100.00;100934.45;107315;1248;58023;-75
2023/05/25 01:27:32;;;;;;;13.60;7.40;;;;;;;14.23;100.00;100930.13;107492;1242;59075;-76
2023/05/25 01:30:02;;;;;;;11.90;7.30;;;;;;;14.27;100.00;100927.00;107613;1238;73984;-74
2023/05/25 01:32:32;;;;;;;11.70;7.80;;;;;;;14.30;100.00;100933.40;107546;1243;73000;-73
2023/05/25 01:35:03;;;;;;;14.20;7.00;;;;;;;14.28;100.00;100933.38;107608;1238;70892;-74
2023/05/25 01:37:36;;;;;;;11.10;7.00;;;;;;;14.30;100.00;100937.06;107613;1238;74597;-75
2023/05/25 01:40:07;;;;;;;14.20;7.00;;;;;;;14.36;100.00;100935.70;107647;1242;58888;-75
2023/05/25 01:42:36;;;;;;;12.00;6.90;;;;;;;14.41;100.00;100937.92;107623;1240;58908;-74
2023/05/25 01:45:08;;;;;;;17.50;7.40;;;;;;;14.35;100.00;100934.92;107550;1249;73862;-74
2023/05/25 01:48:13;;;;;;;12.50;7.30;;;;;;;14.31;100.00;100935.55;107564;1242;72662;-75
2023/05/25 01:50:54;;;;;;;12.90;7.90;;;;;;;14.23;100.00;100931.38;107591;1242;59646;-74
2023/05/25 01:53:34;;;;;;;12.90;7.40;;;;;;;14.21;100.00;100929.25;107579;1242;62518;-75
2023/05/25 01:56:10;;;;;;;13.70;8.10;;;;;;;14.25;100.00;100928.42;107567;1241;59137;-74
2023/05/25 01:58:47;;;;;;;13.00;6.50;;;;;;;14.31;100.00;100936.31;107386;1244;57558;-73
2023/05/25 02:01:18;;;;;;;14.60;6.80;;;;;;;14.38;100.00;100938.84;107405;1244;63528;-73
2023/05/25 02:03:48;;;;;;;10.70;6.80;;;;;;;14.32;100.00;100943.20;107547;1238;71720;-74
2023/05/25 02:06:17;;;;;;;12.60;6.40;;;;;;;14.35;100.00;100945.60;107453;1242;70206;-76
2023/05/25 02:08:45;;;;;;;11.70;6.50;;;;;;;14.42;100.00;100948.73;107478;1242;73830;-74
2023/05/25 02:11:15;;;;;;;10.50;6.20;;;;;;;14.39;100.00;100952.93;107431;1242;59032;-74
2023/05/25 02:13:45;;;;;;;12.60;6.90;;;;;;;14.39;100.00;100953.80;107615;1238;58939;-75
2023/05/25 02:16:14;;;;;;;11.50;6.80;;;;;;;14.36;100.00;100955.35;107612;1242;62928;-72
2023/05/25 02:18:45;;;;;;;14.00;7.40;;;;;;;14.33;100.00;100956.93;107554;1241;72228;-73
2023/05/25 02:21:14;;;;;;;11.00;6.80;;;;;;;14.33;100.00;100951.52;107498;1252;70438;-72
2023/05/25 02:23:43;;;;;;;13.10;6.60;;;;;;;14.41;100.00;100954.08;107636;1242;74212;-73
2023/05/25 02:26:11;;;;;;;13.50;7.40;;;;;;;14.45;100.00;100963.68;107507;1245;62080;-73
2023/05/25 02:28:40;;;;;;;9.50;6.30;;;;;;;14.49;100.00;100970.70;107565;1250;58262;-72
2023/05/25 02:31:09;;;;;;;12.00;7.00;;;;;;;14.55;100.00;100973.23;107631;1242;63272;-72
2023/05/25 02:33:38;;;;;;;12.10;7.10;;;;;;;14.58;100.00;100972.92;107623;1252;61613;-73
2023/05/25 02:36:07;;;;;;;10.70;7.10;;;;;;;14.46;100.00;100951.88;107544;1241;70769;-72
2023/05/25 02:38:36;;;;;;;10.50;7.00;;;;;;;14.62;100.00;100977.20;107456;1252;65041;-73
2023/05/25 02:41:05;;;;;;;13.90;6.20;;;;;;;14.67;100.00;100975.70;107469;1251;62776;-73
2023/05/25 02:43:34;;;;;;;11.50;6.30;;;;;;;14.75;100.00;100974.83;107513;1243;59103;-73
2023/05/25 02:46:03;;;;;;;14.40;7.10;;;;;;;14.77;100.00;100977.81;107564;1241;73414;-73
2023/05/25 02:48:32;;;;;;;15.00;6.80;;;;;;;14.75;100.00;100981.27;107482;1243;71867;-73
2023/05/25 02:51:02;;;;;;;14.20;7.00;;;;;;;14.81;100.00;100981.98;107468;1241;59983;-74
2023/05/25 02:53:31;;;;;;;13.70;6.80;;;;;;;14.88;100.00;100984.09;107470;1243;63544;-73
2023/05/25 02:56:02;;;;;;;11.60;7.30;;;;;;;14.81;100.00;100988.16;107547;1242;62176;-74
2023/05/25 02:58:33;;;;;;;9.70;6.80;;;;;;;14.87;100.00;100985.34;107503;1245;62768;-73
2023/05/25 03:01:09;;;;;;;9.90;6.50;;;;;;;14.92;100.00;100981.44;107530;1243;63428;-74
2023/05/25 03:03:50;;;;;;;11.00;6.20;;;;;;;14.96;100.00;100983.86;107466;1245;71794;-74
2023/05/25 03:06:39;;;;;;;10.50;6.00;;;;;;;15.06;100.00;100980.55;104447;1273;600834;-73
2023/05/25 03:09:15;;;;;;;12.20;6.60;;;;;;;15.02;100.00;100989.66;106805;1254;58922;-73
2023/05/25 03:11:45;;;;;;;10.80;6.10;;;;;;;14.96;100.00;100993.71;106918;1251;59014;-74
2023/05/25 03:14:16;;;;;;;12.20;6.70;;;;;;;14.97;100.00;100996.79;106951;1261;71921;-73
2023/05/25 03:16:51;;;;;;;10.30;6.50;;;;;;;14.81;100.00;100999.34;106872;1254;71808;-74
2023/05/25 03:19:22;;;;;;;15.90;7.60;;;;;;;14.77;100.00;101000.02;106874;1251;243881;-73
2023/05/25 03:21:51;;;;;;;14.10;7.30;;;;;;;14.79;100.00;101003.01;107143;1249;63574;-74
2023/05/25 03:24:20;;;;;;;12.90;6.00;;;;;;;14.90;100.00;101004.77;107038;1251;58958;-74
2023/05/25 03:26:49;;;;;;;13.50;6.40;;;;;;;14.95;100.00;101002.70;107119;1248;61317;-74
2023/05/25 03:29:18;;;;;;;10.30;6.60;;;;;;;15.03;100.00;101003.27;107016;1251;70985;-73
2023/05/25 03:31:47;;;;;;;15.70;7.80;;;;;;;15.09;100.00;101005.36;107170;1248;72542;-73
2023/05/25 03:34:15;;;;;;;26.90;15.30;;;;;;;15.15;100.00;101017.30;106798;1256;70312;-71
2023/05/25 03:36:46;;;;;;;14.90;7.10;;;;;;;15.08;100.00;101005.34;106843;1246;73502;-72
2023/05/25 03:39:16;;;;;;;15.10;7.70;;;;;;;15.32;100.00;101034.59;106834;1249;62584;-73
2023/05/25 03:41:45;;;;;;;15.00;7.40;;;;;;;15.37;100.00;101033.46;106849;1250;59150;-73
2023/05/25 03:44:14;;;;;;;12.00;6.20;;;;;;;15.47;100.00;101034.18;106991;1259;71858;-73
2023/05/25 03:46:44;;;;;;;10.70;6.30;;;;;;;15.51;100.00;101033.29;106896;1251;61378;-73
2023/05/25 03:49:13;;;;;;;9.60;6.00;;;;;;;15.49;100.00;101028.41;106961;1257;60035;-73
2023/05/25 03:51:43;;;;;;;15.70;6.70;;;;;;;15.43;100.00;101031.23;106935;1248;63602;-72
2023/05/25 03:54:12;;;;;;;10.60;6.20;;;;;;;15.40;100.00;101036.52;107007;1248;61550;-73
2023/05/25 03:56:41;;;;;;;11.00;5.30;;;;;;;15.44;100.00;101038.86;106793;1251;59095;-72
2023/05/25 03:59:11;;;;;;;12.40;5.80;;;;;;;15.51;100.00;101040.67;106878;1248;62136;-73
2023/05/25 04:01:40;;;;;;;10.00;6.30;;;;;;;15.54;100.00;101040.16;106983;1248;61750;-70
2023/05/25 04:04:09;;;;;;;9.70;5.60;;;;;;;15.60;100.00;101037.77;106828;1247;70500;-70
2023/05/25 04:06:39;;;;;;;10.50;6.30;;;;;;;15.68;100.00;101040.61;106923;1248;63364;-71
2023/05/25 04:09:07;;;;;;;8.40;5.10;;;;;;;15.75;100.00;101044.37;106880;1248;62216;-71
2023/05/25 04:11:37;;;;;;;9.90;5.10;;;;;;;15.84;100.00;101041.45;106929;1248;61416;-70
2023/05/25 04:14:06;;;;;;;9.70;5.20;;;;;;;16.01;100.00;101043.48;107056;1247;73283;-71
2023/05/25 04:16:40;;;;;;;12.50;6.30;;;;;;;15.96;100.00;101043.50;106958;1259;62033;-70
2023/05/25 04:19:09;;;;;;;11.70;5.90;;;;;;;15.85;100.00;101039.73;106876;1252;69774;-71
2023/05/25 04:21:39;;;;;;;12.20;6.60;;;;;;;15.88;100.00;101040.42;107052;1246;74554;-70
2023/05/25 04:24:08;;;;;;;12.40;5.80;;;;;;;15.93;100.00;101042.26;106970;1251;62762;-76
2023/05/25 04:26:38;;;;;;;13.20;5.90;;;;;;;15.98;100.00;101048.06;106936;1248;59014;-73
2023/05/25 04:29:08;;;;;;;9.70;6.20;;;;;;;16.07;100.00;101050.75;106892;1251;62185;-70
2023/05/25 04:31:44;;;;;;;12.60;6.70;;;;;;;16.17;100.00;101045.91;106986;1260;61921;-70
2023/05/25 04:34:13;;;;;;;11.00;6.00;;;;;;;16.25;100.00;101043.55;107021;1253;59905;-71
2023/05/25 04:36:55;;;;;;;10.80;5.80;;;;;;;16.38;100.00;101046.75;106852;1251;63501;-72
2023/05/25 04:39:26;;;;;;;9.40;5.90;;;;;;;16.53;99.74;101050.70;106593;1248;62500;-70
2023/05/25 04:42:03;;;;;;;10.00;5.70;;;;;;;16.60;98.93;101046.84;106577;1254;60826;-70
2023/05/25 04:44:35;;;;;;;13.40;6.50;;;;;;;16.70;98.33;101042.41;106930;1248;61359;-70
2023/05/25 04:47:07;;;;;;;;;;;;;;;16.79;97.67;101053.57;107131;1257;61757;-69
2023/05/25 04:49:38;;;;;;;13.60;6.10;;;;;;;16.83;96.21;101053.37;106982;1256;60392;-70
2023/05/25 04:52:09;;;;;;;14.80;6.50;;;;;;;16.73;96.34;101048.49;107003;1255;73707;-71
2023/05/25 04:54:40;;;;;;;12.80;6.40;;;;;;;16.79;95.59;101050.88;107132;1256;61845;-71
2023/05/25 04:57:10;;;;;;;11.30;6.40;;;;;;;16.81;95.15;101051.04;107225;1245;60629;-70
2023/05/25 04:59:39;;;;;;;8.60;6.00;;;;;;;16.84;94.71;101048.86;107178;1247;72651;-71
2023/05/25 05:02:08;;;;;;;14.80;6.90;;;;;;;16.90;94.24;101053.70;107281;1248;62024;-71
2023/05/25 05:04:40;;;;;;;11.10;5.40;;;;;;;16.97;93.64;101057.00;107229;1245;59200;-70
2023/05/25 05:07:09;;;;;;;11.50;5.80;;;;;;;17.04;92.74;101056.14;107296;1244;63331;-71
2023/05/25 05:09:39;;;;;;;10.70;6.80;;;;;;;17.05;92.35;101060.41;107197;1255;63803;-71
2023/05/25 05:12:08;;;;;;;14.90;6.70;;;;;;;17.03;92.40;101058.14;107296;1245;58984;-71
2023/05/25 05:14:45;;;;;;;15.40;7.40;;;;;;;17.07;92.12;101057.77;107162;1243;61365;-71
2023/05/25 05:17:14;;;;;;;13.70;6.50;;;;;;;17.10;91.90;101062.20;107253;1242;61579;-72
2023/05/25 05:19:43;;;;;;;14.40;7.20;;;;;;;17.17;91.43;101062.14;107150;1246;60048;-73
2023/05/25 05:22:14;;;;;;;12.90;6.30;;;;;;;17.24;90.84;101063.41;107247;1244;72973;-71
2023/05/25 05:24:45;;;;;;;10.10;6.80;;;;;;;17.23;90.55;101069.61;107065;1247;58021;-69
2023/05/25 05:27:21;;;;;;;11.40;7.00;;;;;;;17.26;90.16;101072.77;107084;1250;60837;-71
2023/05/25 05:29:55;;;;;;;14.90;7.00;;;;;;;17.31;89.61;101073.79;106996;1257;62208;-69
2023/05/25 05:32:24;;;;;;;13.60;6.70;;;;;;;17.39;88.69;101070.53;107113;1245;71582;-71
2023/05/25 05:34:54;;;;;;;13.40;6.70;;;;;;;17.44;88.03;101075.37;107139;1248;69672;-71
2023/05/25 05:37:42;;;;;;;10.80;6.50;;;;;;;17.50;87.89;101073.95;108973;1244;63215;-71
2023/05/25 05:40:12;;;;;;;10.80;6.00;;;;;;;17.57;88.00;101073.02;108328;1245;63791;-74
2023/05/25 05:42:42;;;;;;;13.20;6.80;;;;;;;17.68;87.76;101069.38;107291;1245;58311;-71
2023/05/25 05:45:12;;;;;;;11.80;6.60;;;;;;;17.83;86.86;101067.89;107002;1248;62188;-71
2023/05/25 05:47:42;;;;;;;10.10;6.60;;;;;;;17.94;86.16;101067.34;106846;1250;61943;-71
2023/05/25 05:50:11;;;;;;;15.40;7.20;;;;;;;18.07;85.72;101064.86;107037;1245;69656;-66
2023/05/25 05:52:41;;;;;;;10.10;6.70;;;;;;;18.12;85.18;101069.68;107244;1244;63937;-73
2023/05/25 05:55:11;;;;;;;12.10;6.20;;;;;;;18.23;84.75;101070.88;107169;1246;58986;-71
2023/05/25 05:57:42;;;;;;;13.60;7.20;;;;;;;18.38;83.58;101073.32;107294;1244;58988;-73
2023/05/25 06:00:13;;;;;;;12.70;6.80;;;;;;;18.54;82.93;101075.67;107247;1244;62760;-81
2023/05/25 06:02:46;;;;;;;10.00;6.90;;;;;;;18.68;82.27;101075.19;107238;1245;72879;-76
2023/05/25 06:05:20;;;;;;;11.20;6.50;;;;;;;18.78;81.67;101075.80;107372;1245;59968;-72
2023/05/25 06:07:49;;;;;;;11.90;6.30;;;;;;;18.89;81.32;101072.06;107527;1246;63313;-71
2023/05/25 06:10:19;;;;;;;12.30;6.20;;;;;;;18.92;80.51;101072.98;107459;1244;59025;-75
2023/05/25 06:12:49;;;;;;;11.20;6.60;;;;;;;19.02;79.89;101069.83;107220;1244;61243;-72
2023/05/25 06:15:18;;;;;;;13.10;6.90;;;;;;;19.19;79.44;101069.79;107206;1244;73058;-73
2023/05/25 06:17:48;;;;;;;9.40;6.30;;;;;;;19.34;78.59;101070.98;107578;1245;64161;-73
2023/05/25 06:20:17;;;;;;;9.50;6.40;;;;;;;19.49;77.48;101076.97;107585;1244;70852;-73
2023/05/25 06:22:47;;;;;;;11.50;6.90;;;;;;;19.48;76.43;101077.09;107113;1253;73294;-73
2023/05/25 06:25:16;;;;;;;10.80;7.20;;;;;;;19.58;76.59;101081.88;107335;1246;61614;-73
2023/05/25 06:27:45;;;;;;;9.90;6.90;;;;;;;19.68;76.17;101086.31;107376;1243;62188;-74
2023/05/25 06:30:14;;;;;;;12.30;6.20;;;;;;;19.66;76.18;101087.92;107328;1247;62305;-72
2023/05/25 06:32:44;;;;;;;12.50;6.50;;;;;;;19.85;75.96;101083.05;107312;1247;72218;-73
2023/05/25 06:35:18;;;;;;;11.00;6.20;;;;;;;19.94;75.57;101082.90;107333;1246;71030;-72
2023/05/25 06:37:49;;;;;;;9.80;6.60;;;;;;;19.99;74.94;101083.86;107273;1244;74132;-73
2023/05/25 06:40:19;;;;;;;9.20;6.30;;;;;;;20.08;74.99;101086.27;107442;1244;58068;-71
2023/05/25 06:42:48;;;;;;;11.30;6.80;;;;;;;20.24;74.60;101090.84;107123;1246;59107;-73
2023/05/25 06:46:04;;;;;;;9.40;6.60;;;;;;;20.43;73.93;101092.25;107352;1245;73159;-74
2023/05/25 06:48:33;;;;;;;11.40;6.70;;;;;;;20.62;73.52;101089.38;107225;1247;71824;-74
2023/05/25 06:51:03;;;;;;;8.50;6.10;;;;;;;20.81;72.94;101086.59;107307;1244;70132;-74
2023/05/25 06:53:32;;;;;;;13.60;6.80;;;;;;;20.94;72.54;101088.50;107325;1244;71823;-75
2023/05/25 06:56:00;;;;;;;11.00;6.60;;;;;;;20.98;71.93;101093.00;107329;1246;61175;-73
2023/05/25 06:58:29;;;;;;;8.90;6.40;;;;;;;21.06;71.21;101094.08;107264;1246;60994;-74
2023/05/25 07:00:59;;;;;;;15.90;6.20;;;;;;;21.15;70.83;101096.48;107180;1255;73375;-74
2023/05/25 07:03:29;;;;;;;10.10;6.30;;;;;;;21.25;69.94;101096.22;107204;1252;72959;-73
2023/05/25 07:05:57;;;;;;;13.50;6.20;;;;;;;21.31;70.11;101097.27;107072;1244;71048;-73
2023/05/25 07:08:26;;;;;;;11.60;6.20;;;;;;;21.53;69.59;101094.33;107107;1248;63741;-74
2023/05/25 07:10:55;;;;;;;15.80;6.30;;;;;;;21.47;69.00;101093.07;107126;1245;58992;-75
2023/05/25 07:13:24;;;;;;;13.00;6.60;;;;;;;21.42;68.87;101100.54;107239;1243;57433;-74
2023/05/25 07:15:53;;;;;;;11.50;6.20;;;;;;;21.43;68.65;101101.67;107102;1244;62160;-74
2023/05/25 07:18:22;;;;;;;10.00;6.60;;;;;;;21.44;68.31;101096.58;107284;1243;71725;-74
2023/05/25 07:20:50;;;;;;;11.80;7.00;;;;;;;21.46;68.31;101095.64;107221;1255;70164;-72
2023/05/25 07:23:21;;;;;;;14.00;6.30;;;;;;;21.51;68.56;101096.71;107284;1244;73713;-81
2023/05/25 07:25:51;;;;;;;11.10;6.10;;;;;;;21.59;68.66;101099.47;107034;1254;59844;-74
2023/05/25 07:28:19;;;;;;;10.20;5.90;;;;;;;21.64;68.67;101101.67;107175;1245;62072;-76
2023/05/25 07:30:48;;;;;;;7.70;5.60;;;;;;;21.73;67.67;101103.15;107209;1245;63539;-76
2023/05/25 07:33:17;;;;;;;9.90;6.00;;;;;;;21.77;66.63;101103.05;107287;1245;61064;-75
2023/05/25 07:35:46;;;;;;;11.10;5.30;;;;;;;21.81;67.07;101100.48;107331;1245;60023;-73
2023/05/25 07:38:15;;;;;;;11.20;6.10;;;;;;;22.07;66.51;101101.24;107249;1252;73829;-81
2023/05/25 07:40:46;;;;;;;8.60;6.10;;;;;;;22.16;66.14;101106.83;107466;1243;61191;-78
2023/05/25 07:43:14;;;;;;;8.30;5.20;;;;;;;22.20;65.48;101107.29;107425;1244;62678;-79
2023/05/25 07:45:43;;;;;;;8.40;5.40;;;;;;;22.28;65.12;101107.02;107383;1244;72209;-72
2023/05/25 07:48:13;;;;;;;7.70;5.00;;;;;;;22.45;64.97;101109.01;107272;1243;72867;-70
2023/05/25 07:50:42;;;;;;;9.90;5.70;;;;;;;22.65;64.26;101101.97;107371;1245;70399;-71
2023/05/25 07:53:11;;;;;;;7.60;4.90;;;;;;;22.67;62.67;101101.35;107212;1246;62947;-77
2023/05/25 07:55:40;;;;;;;9.80;5.50;;;;;;;22.83;61.55;101099.88;107234;1243;59047;-71
2023/05/25 07:58:09;;;;;;;9.30;4.90;;;;;;;22.83;61.76;101100.61;107200;1245;59118;-70
2023/05/25 08:00:38;;;;;;;8.40;5.00;;;;;;;22.91;61.43;101100.18;107255;1252;62366;-72
2023/05/25 08:03:07;;;;;;;8.90;5.10;;;;;;;23.10;61.18;101098.29;107329;1251;61957;-72
2023/05/25 08:05:37;;;;;;;8.70;5.00;;;;;;;23.16;60.29;101088.85;107324;1244;70526;-72
2023/05/25 08:08:06;;;;;;;10.80;4.70;;;;;;;23.24;60.33;101088.27;107334;1244;63144;-68
2023/05/25 08:10:35;;;;;;;10.00;5.20;;;;;;;23.41;60.23;101094.73;107238;1246;59027;-68
2023/05/25 08:13:04;;;;;;;8.90;5.00;;;;;;;23.22;59.58;101095.18;107347;1245;59104;-71
2023/05/25 08:15:33;;;;;;;7.40;5.00;;;;;;;23.27;59.36;101095.13;107189;1256;62420;-70
2023/05/25 08:18:03;;;;;;;7.80;4.60;;;;;;;23.68;58.75;101099.08;107289;1244;60978;-71
2023/05/25 08:20:32;;;;;;;8.70;5.70;;;;;;;23.79;57.96;101101.80;107121;1255;60267;-71
2023/05/25 08:23:01;;;;;;;8.40;5.10;;;;;;;23.94;58.05;101092.89;107204;1244;73680;-71
2023/05/25 08:25:30;;;;;;;9.50;5.50;;;;;;;24.03;57.30;101098.44;107205;1245;61267;-70
2023/05/25 08:27:59;;;;;;;9.30;5.00;;;;;;;24.09;56.98;101092.99;107373;1244;61418;-70
2023/05/25 08:30:29;;;;;;;6.20;4.40;;;;;;;24.00;57.15;101096.35;107252;1245;73514;-71
2023/05/25 08:32:58;;;;;;;8.70;4.50;;;;;;;24.04;57.15;101092.13;107260;1244;60895;-70
2023/05/25 08:35:27;;;;;;;10.80;5.30;;;;;;;23.79;56.85;101087.56;107156;1248;59372;-75
2023/05/25 08:37:56;;;;;;;11.10;5.10;;;;;;;24.05;57.08;101088.81;107322;1244;63230;-71
2023/05/25 08:40:29;;;;;;;9.90;4.30;;;;;;;24.46;56.25;101086.42;107329;1252;61347;-71
2023/05/25 08:42:59;;;;;;;7.60;4.20;;;;;;;24.71;54.24;101092.70;106815;1245;62225;-72
2023/05/25 08:45:29;;;;;;;8.80;4.00;;;;;;;24.70;52.53;101092.65;106990;1251;74051;-71
2023/05/25 08:48:14;;;;;;;6.90;3.80;;;;;;;24.69;52.60;101092.40;107074;1247;73063;-72
2023/05/25 08:51:09;;;;;;;7.10;4.00;;;;;;;25.04;52.48;101099.52;107095;1250;71208;-82
2023/05/25 08:53:42;;;;;;;9.40;4.70;;;;;;;25.10;52.25;101092.83;107042;1247;63694;-69
2023/05/25 09:03:19;;;;;;;6.90;3.80;;;;;;;25.48;51.32;101090.96;104410;1277;600720;-70
2023/05/25 09:05:49;;;;;;;6.60;4.00;;;;;;;25.43;50.43;101088.26;107004;1251;59020;-72
2023/05/25 09:08:20;;;;;;;5.20;3.40;;;;;;;25.75;49.67;101087.15;106905;1251;61294;-72
2023/05/25 09:10:51;;;;;;;7.00;3.80;;;;;;;25.91;48.30;101087.21;107031;1251;62430;-71
2023/05/25 09:13:20;;;;;;;5.40;3.20;;;;;;;25.76;47.79;101086.98;107054;1247;70549;-73
2023/05/25 09:15:51;;;;;;;9.90;3.90;;;;;;;26.08;47.68;101087.08;107021;1247;333429;-74
2023/05/25 09:18:20;;;;;;;5.30;3.10;;;;;;;25.96;47.28;101090.11;107516;1244;63230;-72
2023/05/25 09:20:49;;;;;;;8.40;3.20;;;;;;;25.77;47.24;101087.74;107515;1244;57343;-71
2023/05/25 09:23:20;;;;;;;8.30;3.30;;;;;;;26.04;45.62;101086.61;107378;1246;59122;-71
2023/05/25 09:25:50;;;;;;;7.50;2.90;;;;;;;26.35;45.59;101079.16;107152;1243;71844;-71
2023/05/25 09:28:19;;;;;;;6.50;3.90;;;;;;;26.07;46.20;101072.20;107131;1248;61745;-71
2023/05/25 09:30:52;;;;;;;9.40;4.20;;;;;;;26.19;46.05;101070.45;107202;1251;60926;-74
2023/05/25 09:33:21;;;;;;;6.70;3.30;;;;;;;26.46;44.90;101070.44;107232;1245;62681;-72
2023/05/25 09:35:51;;;;;;;5.80;3.10;;;;;;;26.48;44.38;101072.25;107171;1249;59045;-72
2023/05/25 09:38:20;;;;;;;6.50;3.10;;;;;;;26.65;43.81;101065.77;107398;1252;61190;-71
2023/05/25 09:40:50;;;;;;;4.60;3.00;;;;;;;26.78;43.43;101060.52;107270;1247;61931;-72
2023/05/25 09:43:20;;;;;;;4.20;3.30;;;;;;;26.66;43.30;101060.50;107413;1248;71306;-73
2023/05/25 09:46:10;;;;;;;8.00;3.30;;;;;;;26.63;43.56;101055.27;107375;1256;61456;-70
2023/05/25 09:48:40;;;;;;;8.10;3.40;;;;;;;26.51;43.52;101058.12;107169;1245;65989;-70
2023/05/25 09:51:11;;;;;;;7.30;3.50;;;;;;;26.50;43.45;101047.16;107252;1245;61248;-70
2023/05/25 09:53:40;;;;;;;4.40;2.80;;;;;;;26.54;43.19;101046.98;107080;1245;60965;-70
2023/05/25 09:56:11;;;;;;;6.00;3.70;;;;;;;26.39;43.94;101041.71;107187;1244;73494;-71
2023/05/25 09:58:40;;;;;;;4.80;2.80;;;;;;;26.32;44.32;101044.52;107101;1255;62200;-71
2023/05/25 10:01:10;;;;;;;5.90;3.10;;;;;;;26.35;44.10;101043.64;106991;1243;60818;-72
2023/05/25 10:03:49;;;;;;;6.40;3.70;;;;;;;26.38;44.36;101043.23;107179;1245;64520;-71
2023/05/25 10:06:34;;;;;;;8.70;3.90;;;;;;;26.25;45.04;101041.58;107190;1251;59106;-71
2023/05/25 10:09:05;;;;;;;6.10;3.50;;;;;;;26.31;44.82;101037.02;107078;1254;60903;-69
2023/05/25 10:11:38;;;;;;;6.60;4.00;;;;;;;26.31;44.67;101029.84;107106;1244;72727;-70
2023/05/25 10:14:09;;;;;;;8.00;3.50;;;;;;;26.33;45.08;101031.36;107066;1255;62016;-71
2023/05/25 10:16:41;;;;;;;9.40;3.90;;;;;;;26.13;45.50;101024.41;106918;1256;60320;-70
2023/05/25 10:19:20;;;;;;;5.90;4.10;;;;;;;26.35;45.44;101025.23;107152;1255;73845;-70
2023/05/25 10:22:30;;;;;;;5.30;3.20;;;;;;;26.79;44.99;101019.58;107164;1244;59032;-71
2023/05/25 10:25:43;;;;;;;6.00;3.70;;;;;;;27.02;43.14;101022.25;107472;1252;57422;-71
2023/05/25 10:28:21;;;;;;;7.70;3.50;;;;;;;27.37;43.45;101016.61;107663;1242;62373;-69
2023/05/25 10:30:52;;;;;;;5.40;3.50;;;;;;;27.91;41.56;101007.73;108477;1244;62108;-71
2023/05/25 10:33:22;;;;;;;11.00;3.50;;;;;;;28.10;41.34;101010.03;107575;1244;60274;-72
2023/05/25 10:35:53;;;;;;;4.30;2.80;;;;;;;28.24;41.08;101009.39;107446;1245;74192;-72
2023/05/25 10:38:43;;;;;;;6.40;3.60;;;;;;;28.06;40.70;101007.05;107189;1255;59040;-74
2023/05/25 10:41:14;;;;;;;5.90;3.20;;;;;;;27.84;41.04;101006.02;107484;1244;61796;-77
2023/05/25 10:43:44;;;;;;;4.70;3.40;;;;;;;28.29;40.84;101001.46;107460;1255;62253;-74
2023/05/25 10:46:14;;;;;;;5.10;3.30;;;;;;;28.20;40.91;101000.59;107417;1244;63147;-71
2023/05/25 10:48:59;;;;;;;5.10;3.60;;;;;;;28.52;40.31;100999.73;107211;1255;60538;-72
2023/05/25 10:51:42;;;;;;;7.00;3.00;;;;;;;28.72;39.96;100988.85;107212;1243;62476;-74
2023/05/25 10:54:13;;;;;;;5.50;3.10;;;;;;;28.61;39.90;100983.38;107303;1244;57456;-73
2023/05/25 10:57:22;;;;;;;4.60;3.30;;;;;;;28.68;39.81;100977.77;107300;1244;59103;-71
2023/05/25 10:59:58;;;;;;;3.90;2.90;;;;;;;29.15;39.06;100971.39;107158;1255;63912;-72
2023/05/25 11:02:30;;;;;;;5.30;3.30;;;;;;;29.37;38.65;100961.66;106976;1248;72040;-74
2023/05/25 11:05:39;;;;;;;6.10;3.30;;;;;;;29.29;38.66;100964.05;107186;1244;61984;-67
2023/05/25 11:08:11;;;;;;;6.90;3.50;;;;;;;29.54;38.38;100955.77;106920;1247;62859;-66
2023/05/25 11:10:52;;;;;;;6.30;3.10;;;;;;;29.82;37.76;100949.01;107078;1241;61669;-65
2023/05/25 11:13:23;;;;;;;6.60;3.30;;;;;;;29.82;36.81;100950.73;107108;1244;61015;-66
2023/05/25 11:16:33;;;;;;;7.20;3.20;;;;;;;29.92;36.84;100941.17;107838;1241;73103;-66
2023/05/25 11:19:02;;;;;;;5.30;3.30;;;;;;;29.96;37.05;100941.42;106839;1255;62048;-66
2023/05/25 11:21:42;;;;;;;4.00;3.00;;;;;;;29.66;37.27;100938.36;108421;1241;59765;-66
2023/05/25 11:24:15;;;;;;;5.80;3.20;;;;;;;29.85;36.32;100932.29;107274;1255;73843;-66
2023/05/25 11:26:56;;;;;;;4.50;3.10;;;;;;;29.39;36.87;100932.70;107299;1241;58881;-66
2023/05/25 11:29:30;;;;;;;7.90;3.10;;;;;;;29.50;37.14;100936.89;107331;1244;59046;-66
2023/05/25 11:32:00;;;;;;;5.80;3.10;;;;;;;29.52;36.73;100936.83;107239;1255;61418;-67
2023/05/25 11:34:33;;;;;;;6.20;3.20;;;;;;;29.28;37.21;100930.48;107222;1246;71388;-67
2023/05/25 11:37:02;;;;;;;6.60;2.80;;;;;;;28.89;37.79;100924.21;107196;1245;70899;-68
2023/05/25 11:39:32;;;;;;;6.30;3.30;;;;;;;28.52;38.33;100923.13;107339;1245;74094;-66